岩国 の空港の天気 - METARとTAF

岩国飛行場 ( RJOI / IWK ) - 山口県岩国市
飛行場実況気象(Metar)
観測時間12/15 20:55 JST (12/15 11:55 UTC)
風向・風速西北西 4m/s
視程10km以上
天気現象
全天の4割程度の雲 雲底高度 910m
気温6.7℃
湿度70%
気圧1028.8hPa
METARRJOI 151155Z 30008KT 9999 SCT030 07/02 A3038 RMK SLP288 7//// T00670017 10117 20067 50003
過去の天気等 Google飛行場航空写真 Wunderground天気予報

過去48時間のMETAR

飛行場予報(TAF)
発表時間: -
15日16時 JST ~ 15日18時 JST に徐々に
風向・風速北西 4m/s
視程10km以上
全天の4割程度の雲 雲底高度 910m
全天の4割程度の雲 雲底高度 1830m
全天の8割程度の雲 雲底高度 5490m
15日23時 JST ~ 16日1時 JST に徐々に
風向・風速西北西 3m/s
視程10km以上
全天の4割程度の雲 雲底高度 610m
全天の8割程度の雲 雲底高度 5490m
16日11時 JST から
風向・風速不定 3m/s
視程10km以上
天気現象周辺でしゅう雨
全天の4割程度の雲 雲底高度 760m
全天の8割程度の雲 雲底高度 1520m
全天の8割程度の雲 雲底高度 3050m
TAF RJOI 1505/1605 VRB06KT 9999 BKN030 BKN060 QNH3036INS
BECMG 1507/1509 31008KT 9999 SCT030 SCT060 BKN180 QNH3028INS
BECMG 1514/1516 30006KT 9999 SCT020 BKN180 QNH3016INS
FM160200 VRB06KT 9999 VCSH SCT025 BKN050 BKN100 QNH3011INS T12/1505Z T04/1521Z
日本の空港のMETAR・TAFへのリンク

RJTT 東京国際空港
RJAA 新東京国際空港
RJBB 関西国際空港
RJOO 大阪空港
RJGG 中部国際空港
RJCC 新千歳空港
RJFF 福岡空港
ROAH 那覇空港


RJEC 旭川空港
RJCH 函館空港
RJCK 釧路空港
RJCM 女満別空港
RJCB 帯広空港
RJSA 青森空港
RJSS 仙台空港
RJSK 秋田空港
RJSF 福島空港
RJAH 茨城空港
RJSN 新潟空港
RJNT 富山空港
RJNK 小松飛行場
RJNS 静岡空港
RJOH 美保飛行場
RJOC 出雲空港
RJOB 岡山空港
RJOA 広島空港
RJOI 岩国飛行場
RJOT 高松空港
RJOM 松山空港
RJOK 高知空港
RJFR 北九州空港
RJFT 熊本空港
RJFU 長崎空港
RJFS 佐賀空港
RJFO 大分空港
RJFM 宮崎空港
RJFK 鹿児島空港
ROIG 石垣島空港
RJTY 横田飛行場
ROTM 普天間飛行場
RODN 嘉手納飛行場